Aeroporto :
LOGIN :

Iscrizione | Disclaimer

   EN    FR    IT 

 










Sommario :    VFR   VFR Marginale   IFR   IFR Intensivo   IFR Molto Intensivo
Visibilità : 
Base nubi : 
>= 8 km
>= 3000ft
5 / 8 km
1000 / 3000 ft
1500m / 5 km
500 / 1000 ft
800 / 1500m
200 / 500 ft
< 800m
< 200 ft
Simboli :   Temporali  Nebbia  Neve Forte  Precipitazioni Forti  Vento > 20 kt
SIGMETs :   Varie  Temporali  Ghiacco  Turbolenza  Onda orograficha  Ceneri Vulcaniche






- Altitudine del aeroporto : 1504 ft
- Codice IATA : PNA


LEPP - Noain Pamplona

ULTIMO METAR :
  • 211630Z 33008KT CAVOK 16/06 Q1029

METARs OBSOLETI :
  • 211600Z 32006KT 290V360 CAVOK 17/06 Q1029
  • 211530Z 31006KT 280V020 CAVOK 17/06 Q1029
  • 211500Z 29004KT 250V350 CAVOK 17/06 Q1029
  • 211430Z 31003KT CAVOK 17/06 Q1029
  • 211400Z 28003KT 200V320 CAVOK 16/06 Q1029

TAF TAF LEPP
Valido dal 21 a 15 ore il 22 a 15 ore UTC


211400Z 2115/2215 VRB05KT CAVOK TX19/2215Z TN00/2206Z
TEMPO 2115/2120 34010KT
PROB40
TEMPO 2122/2207 3000 BR BKN005 BKN010
PROB40
TEMPO 2200/2207 0350 BCFG BKN001
TEMPO 2212/2215 34010KT



MetMap, La meteo Aeronautica in un colpo d'occhio ! - Copyright ORBIFLY Dicembre 2007 - Disclaimer

ORBIFLY MET'MAP TEAM :

Programmazione e sviluppo : Alexandra Zaïnal
Concezione : Baudouin d'Aumeries
Aiuto per la programmazione : Marc-Olivier Méhu
Supporto tecnico e logistico : Manuel Goepfert
Aiuto per la traduzione : Arnaldo La Scala

Contatto : metmap@orbifly.com




FONTI E CREDITI :

   NOAA